Time,TemperatureF,DewpointF,PressureIn,WindDirection,WindDirectionDegrees,WindSpeedMPH,WindSpeedGustMPH,Humidity,HourlyPrecipIn,Conditions,Clouds,dailyrainin,SoftwareType,DateUTC
2013-10-15 00:01:00,51.3,26.5,0.00,ESE,104,7.6,11.9,38,0.00,,,0.00,VWS V13.01,2013-10-15 05:01:00,
2013-10-15 00:06:00,50.9,26.2,0.00,SE,126,8.7,8.7,38,0.00,,,0.00,VWS V13.01,2013-10-15 05:06:00,
2013-10-15 00:11:00,50.5,27.1,0.00,SE,141,10.5,11.4,40,0.00,,,0.00,VWS V13.01,2013-10-15 05:11:00,
2013-10-15 00:16:00,50.4,28.2,0.00,SSE,155,11.0,12.3,42,0.00,,,0.00,VWS V13.01,2013-10-15 05:16:00,
2013-10-15 00:21:00,50.0,27.8,0.00,ESE,103,10.5,12.8,42,0.00,,,0.00,VWS V13.01,2013-10-15 05:21:00,
2013-10-15 00:26:00,50.0,29.0,0.00,SE,145,11.0,11.0,44,0.00,,,0.00,VWS V13.01,2013-10-15 05:26:00,
2013-10-15 00:31:00,49.8,28.2,0.00,ESE,115,11.0,11.4,43,0.00,,,0.00,VWS V13.01,2013-10-15 05:31:00,
2013-10-15 00:36:00,49.8,27.7,0.00,SE,141,11.0,12.8,42,0.00,,,0.00,VWS V13.01,2013-10-15 05:36:00,
2013-10-15 00:41:00,49.8,28.2,0.00,SE,141,9.6,11.0,43,0.00,,,0.00,VWS V13.01,2013-10-15 05:41:00,
2013-10-15 00:46:00,49.8,28.2,0.00,ESE,102,10.5,11.4,43,0.00,,,0.00,VWS V13.01,2013-10-15 05:46:00,
2013-10-15 00:51:00,49.8,28.8,0.00,ESE,122,12.8,12.8,44,0.00,,,0.00,VWS V13.01,2013-10-15 05:51:00,
2013-10-15 00:56:00,49.8,27.7,0.00,SE,146,10.1,12.8,42,0.00,,,0.00,VWS V13.01,2013-10-15 05:56:00,
2013-10-15 01:01:00,49.8,28.2,0.00,ESE,114,12.8,14.5,43,0.00,,,0.00,VWS V13.01,2013-10-15 06:01:00,
2013-10-15 01:06:00,50.0,29.0,0.00,SE,124,12.3,12.3,44,0.00,,,0.00,VWS V13.01,2013-10-15 06:06:00,
2013-10-15 01:11:00,50.0,29.5,0.00,SE,129,11.0,14.1,45,0.00,,,0.00,VWS V13.01,2013-10-15 06:11:00,
2013-10-15 01:16:00,49.8,29.9,0.00,East,100,14.1,15.4,46,0.00,,,0.00,VWS V13.01,2013-10-15 06:16:00,
2013-10-15 01:21:00,49.8,29.9,0.00,SE,129,15.0,15.0,46,0.00,,,0.00,VWS V13.01,2013-10-15 06:21:00,
2013-10-15 01:26:00,49.3,29.4,0.00,ESE,114,15.0,15.0,46,0.00,,,0.00,VWS V13.01,2013-10-15 06:26:00,
2013-10-15 01:31:00,49.1,29.8,0.00,SE,125,11.9,13.2,47,0.00,,,0.00,VWS V13.01,2013-10-15 06:31:00,
2013-10-15 01:36:00,49.1,30.3,0.00,East,98,11.9,13.2,48,0.00,,,0.00,VWS V13.01,2013-10-15 06:36:00,
2013-10-15 01:41:00,48.7,30.5,0.00,ESE,102,12.8,13.2,49,0.00,,,0.00,VWS V13.01,2013-10-15 06:41:00,
2013-10-15 01:46:00,48.4,30.1,0.00,ESE,111,10.1,12.8,49,0.04,,,0.04,VWS V13.01,2013-10-15 06:46:00,
2013-10-15 01:51:00,48.2,31.4,0.00,ESE,105,11.0,11.4,52,0.04,,,0.04,VWS V13.01,2013-10-15 06:51:00,
2013-10-15 01:56:00,48.2,31.9,0.00,ESE,121,12.3,13.6,53,0.04,,,0.04,VWS V13.01,2013-10-15 06:56:00,
2013-10-15 02:01:00,48.0,32.6,0.00,ESE,103,8.3,10.1,55,0.04,,,0.04,VWS V13.01,2013-10-15 07:01:00,
2013-10-15 02:06:00,47.8,33.4,0.00,ESE,106,8.3,8.7,57,0.04,,,0.04,VWS V13.01,2013-10-15 07:06:00,
2013-10-15 02:11:00,47.7,34.9,0.00,East,90,7.6,8.3,61,0.04,,,0.04,VWS V13.01,2013-10-15 07:11:00,
2013-10-15 02:16:00,47.5,35.5,0.00,ESE,110,10.5,10.5,63,0.08,,,0.08,VWS V13.01,2013-10-15 07:16:00,
2013-10-15 02:21:00,47.5,35.5,0.00,ESE,118,8.7,8.7,63,0.08,,,0.08,VWS V13.01,2013-10-15 07:21:00,
2013-10-15 02:26:00,47.3,35.0,0.00,ESE,118,8.1,10.5,62,0.08,,,0.08,VWS V13.01,2013-10-15 07:26:00,
2013-10-15 02:31:00,47.5,35.5,0.00,ESE,102,6.3,9.6,63,0.08,,,0.08,VWS V13.01,2013-10-15 07:31:00,
2013-10-15 02:36:00,47.5,36.3,0.00,ESE,123,8.1,8.7,65,0.12,,,0.12,VWS V13.01,2013-10-15 07:36:00,
2013-10-15 02:41:00,47.5,35.9,0.00,East,100,8.1,8.7,64,0.12,,,0.12,VWS V13.01,2013-10-15 07:41:00,
2013-10-15 02:46:00,47.5,36.7,0.00,East,101,5.4,6.3,66,0.08,,,0.12,VWS V13.01,2013-10-15 07:46:00,
2013-10-15 02:51:00,47.5,37.1,0.00,ESE,120,10.1,10.5,67,0.16,,,0.20,VWS V13.01,2013-10-15 07:51:00,
2013-10-15 02:56:00,47.3,37.3,0.00,SE,142,5.4,6.3,68,0.16,,,0.20,VWS V13.01,2013-10-15 07:56:00,
2013-10-15 03:01:00,47.3,36.9,0.00,SSE,156,9.2,11.4,67,0.16,,,0.20,VWS V13.01,2013-10-15 08:01:00,
2013-10-15 03:06:00,47.3,37.7,0.00,SE,125,5.8,6.3,69,0.20,,,0.24,VWS V13.01,2013-10-15 08:06:00,
2013-10-15 03:11:00,47.3,38.0,0.00,SE,125,7.6,8.7,70,0.20,,,0.24,VWS V13.01,2013-10-15 08:11:00,
2013-10-15 03:16:00,47.5,38.9,0.00,ESE,108,8.7,8.7,72,0.20,,,0.28,VWS V13.01,2013-10-15 08:16:00,
2013-10-15 03:21:00,47.3,38.7,0.00,ESE,108,10.5,10.5,72,0.20,,,0.31,VWS V13.01,2013-10-15 08:21:00,
2013-10-15 03:26:00,47.3,39.5,0.00,SE,139,15.0,15.0,74,0.24,,,0.31,VWS V13.01,2013-10-15 08:26:00,
2013-10-15 03:31:00,47.3,39.5,0.00,ESE,107,8.7,11.0,74,0.24,,,0.31,VWS V13.01,2013-10-15 08:31:00,
2013-10-15 03:36:00,47.3,39.8,0.00,ESE,103,12.3,12.8,75,0.20,,,0.31,VWS V13.01,2013-10-15 08:36:00,
2013-10-15 03:41:00,47.3,39.5,0.00,ESE,112,12.8,12.8,74,0.20,,,0.35,VWS V13.01,2013-10-15 08:41:00,
2013-10-15 03:46:00,47.5,39.6,0.00,ESE,122,13.2,13.2,74,0.24,,,0.35,VWS V13.01,2013-10-15 08:46:00,
2013-10-15 03:50:00,47.7,40.1,0.00,ESE,115,8.7,8.7,75,0.24,,,0.35,VWS V13.01,2013-10-15 08:50:00,
2013-10-15 03:55:00,47.5,39.6,0.00,ESE,108,6.3,6.7,74,0.16,,,0.35,VWS V13.01,2013-10-15 08:55:00,
2013-10-15 04:00:00,47.5,39.6,0.00,SE,137,8.7,8.7,74,0.20,,,0.39,VWS V13.01,2013-10-15 09:00:00,
2013-10-15 04:05:00,47.7,40.5,0.00,ENE,69,8.7,8.7,76,0.16,,,0.39,VWS V13.01,2013-10-15 09:05:00,
2013-10-15 04:10:00,47.8,41.0,0.00,ESE,115,12.3,12.3,77,0.16,,,0.39,VWS V13.01,2013-10-15 09:10:00,
2013-10-15 04:15:00,47.7,40.1,0.00,ESE,105,11.0,11.0,75,0.12,,,0.39,VWS V13.01,2013-10-15 09:15:00,
2013-10-15 04:20:00,47.7,40.1,0.00,SE,133,10.1,10.1,75,0.12,,,0.39,VWS V13.01,2013-10-15 09:20:00,
2013-10-15 04:25:00,48.0,40.8,0.00,East,100,14.5,14.5,76,0.08,,,0.39,VWS V13.01,2013-10-15 09:25:00,
2013-10-15 04:30:00,48.2,41.0,0.00,ESE,114,11.0,11.0,76,0.12,,,0.43,VWS V13.01,2013-10-15 09:30:00,
2013-10-15 04:35:00,48.0,40.5,0.00,ENE,77,11.0,12.8,75,0.12,,,0.43,VWS V13.01,2013-10-15 09:35:00,
2013-10-15 04:40:00,48.2,40.3,0.00,ESE,107,8.3,10.5,74,0.12,,,0.43,VWS V13.01,2013-10-15 09:40:00,
2013-10-15 04:45:00,48.2,40.3,0.00,SE,126,12.3,12.3,74,0.08,,,0.43,VWS V13.01,2013-10-15 09:45:00,
2013-10-15 04:50:00,48.2,40.0,0.00,East,92,8.3,8.7,73,0.08,,,0.43,VWS V13.01,2013-10-15 09:50:00,
2013-10-15 04:55:00,48.4,39.8,0.00,SE,136,13.2,13.2,72,0.12,,,0.47,VWS V13.01,2013-10-15 09:55:00,
2013-10-15 05:00:00,48.6,40.3,0.00,ESE,112,10.1,12.3,73,0.08,,,0.47,VWS V13.01,2013-10-15 10:00:00,
2013-10-15 05:05:00,48.7,40.5,0.00,East,101,10.1,10.1,73,0.08,,,0.47,VWS V13.01,2013-10-15 10:05:00,
2013-10-15 05:10:00,48.9,41.0,0.00,ESE,111,8.3,11.9,74,0.12,,,0.51,VWS V13.01,2013-10-15 10:10:00,
2013-10-15 05:15:00,48.7,41.2,0.00,ESE,107,14.1,14.1,75,0.12,,,0.51,VWS V13.01,2013-10-15 10:15:00,
2013-10-15 05:20:00,48.9,41.4,0.00,SE,141,11.0,11.0,75,0.12,,,0.51,VWS V13.01,2013-10-15 10:20:00,
2013-10-15 05:25:00,48.7,40.8,0.00,ESE,116,12.3,12.3,74,0.12,,,0.55,VWS V13.01,2013-10-15 10:25:00,
2013-10-15 05:30:00,48.7,40.8,0.00,SE,138,12.3,12.8,74,0.12,,,0.55,VWS V13.01,2013-10-15 10:30:00,
2013-10-15 05:35:00,49.1,41.9,0.00,SE,125,11.9,11.9,76,0.12,,,0.55,VWS V13.01,2013-10-15 10:35:00,
2013-10-15 05:40:00,48.9,41.4,0.00,ESE,113,17.4,17.9,75,0.16,,,0.59,VWS V13.01,2013-10-15 10:40:00,
2013-10-15 05:45:00,48.9,41.7,0.00,East,101,17.0,17.4,76,0.16,,,0.59,VWS V13.01,2013-10-15 10:45:00,
2013-10-15 05:50:00,48.7,41.2,0.00,ESE,123,11.0,11.0,75,0.16,,,0.59,VWS V13.01,2013-10-15 10:50:00,
2013-10-15 05:55:00,48.9,42.0,0.00,SE,127,11.0,11.0,77,0.16,,,0.63,VWS V13.01,2013-10-15 10:55:00,
2013-10-15 06:00:00,48.9,42.4,0.00,ESE,122,8.3,12.3,78,0.16,,,0.63,VWS V13.01,2013-10-15 11:00:00,
2013-10-15 06:05:00,48.9,42.0,0.00,ESE,121,15.9,15.9,77,0.16,,,0.63,VWS V13.01,2013-10-15 11:05:00,
2013-10-15 06:10:00,48.9,42.0,0.00,SSE,149,12.3,12.3,77,0.12,,,0.63,VWS V13.01,2013-10-15 11:10:00,
2013-10-15 06:15:00,49.1,42.2,0.00,ESE,114,11.4,13.2,77,0.12,,,0.63,VWS V13.01,2013-10-15 11:15:00,
2013-10-15 06:20:00,49.1,42.2,0.00,ESE,122,13.2,13.2,77,0.12,,,0.63,VWS V13.01,2013-10-15 11:20:00,
2013-10-15 06:25:00,49.1,41.9,0.00,SSE,168,11.0,11.0,76,0.12,,,0.63,VWS V13.01,2013-10-15 11:25:00,
2013-10-15 06:30:00,49.3,42.0,0.00,SSE,152,11.0,11.0,76,0.08,,,0.63,VWS V13.01,2013-10-15 11:30:00,
2013-10-15 06:35:00,49.3,42.0,0.00,SE,128,13.2,14.1,76,0.12,,,0.67,VWS V13.01,2013-10-15 11:35:00,
2013-10-15 06:40:00,49.3,41.7,0.00,SSE,163,11.4,11.4,75,0.08,,,0.67,VWS V13.01,2013-10-15 11:40:00,
2013-10-15 06:45:00,49.5,42.2,0.00,SE,124,10.5,11.0,76,0.08,,,0.67,VWS V13.01,2013-10-15 11:45:00,
2013-10-15 06:50:00,49.5,41.9,0.00,ESE,112,8.3,11.0,75,0.08,,,0.67,VWS V13.01,2013-10-15 11:50:00,
2013-10-15 06:55:00,49.5,41.9,0.00,SE,131,15.0,15.0,75,0.04,,,0.67,VWS V13.01,2013-10-15 11:55:00,
2013-10-15 07:00:00,49.8,41.9,0.00,SE,138,13.6,13.6,74,0.04,,,0.67,VWS V13.01,2013-10-15 12:00:00,
2013-10-15 07:05:00,49.8,41.9,0.00,SE,128,11.0,12.3,74,0.08,,,0.71,VWS V13.01,2013-10-15 12:05:00,
2013-10-15 07:10:00,50.0,42.0,0.00,SE,137,10.1,10.1,74,0.08,,,0.71,VWS V13.01,2013-10-15 12:10:00,
2013-10-15 07:15:00,50.0,41.7,0.00,SSE,156,8.1,12.3,73,0.08,,,0.71,VWS V13.01,2013-10-15 12:15:00,
2013-10-15 07:20:00,50.2,41.9,0.00,SE,140,10.1,10.1,73,0.08,,,0.71,VWS V13.01,2013-10-15 12:20:00,
2013-10-15 07:25:00,50.2,41.9,0.00,SSE,158,10.5,12.8,73,0.08,,,0.71,VWS V13.01,2013-10-15 12:25:00,
2013-10-15 07:30:00,50.2,41.9,0.00,South,177,10.5,10.5,73,0.08,,,0.71,VWS V13.01,2013-10-15 12:30:00,
2013-10-15 07:35:00,50.2,41.9,0.00,SE,132,11.0,11.0,73,0.04,,,0.71,VWS V13.01,2013-10-15 12:35:00,
2013-10-15 07:40:00,50.2,41.9,0.00,SSE,155,11.4,12.8,73,0.04,,,0.71,VWS V13.01,2013-10-15 12:40:00,
2013-10-15 07:45:00,50.2,41.5,0.00,ESE,109,12.8,12.8,72,0.04,,,0.71,VWS V13.01,2013-10-15 12:45:00,
2013-10-15 07:50:00,50.2,41.9,0.00,South,175,11.9,11.9,73,0.04,,,0.71,VWS V13.01,2013-10-15 12:50:00,
2013-10-15 07:55:00,50.2,41.9,0.00,SE,146,11.0,13.2,73,0.04,,,0.71,VWS V13.01,2013-10-15 12:55:00,
2013-10-15 08:00:00,50.2,41.9,0.00,SE,137,8.7,10.1,73,0.04,,,0.71,VWS V13.01,2013-10-15 13:00:00,
2013-10-15 08:05:00,50.2,42.2,0.00,SSE,153,15.0,15.0,74,0.00,,,0.71,VWS V13.01,2013-10-15 13:05:00,
2013-10-15 08:10:00,50.2,41.9,0.00,SSE,153,12.8,12.8,73,0.00,,,0.71,VWS V13.01,2013-10-15 13:10:00,
2013-10-15 08:15:00,50.4,42.4,0.00,SSE,161,12.3,13.2,74,0.00,,,0.71,VWS V13.01,2013-10-15 13:15:00,
2013-10-15 08:20:00,50.2,42.6,0.00,ESE,111,13.2,13.2,75,0.00,,,0.71,VWS V13.01,2013-10-15 13:20:00,
2013-10-15 08:25:00,50.5,43.3,0.00,SE,143,11.0,11.0,76,0.00,,,0.71,VWS V13.01,2013-10-15 13:25:00,
2013-10-15 08:30:00,50.4,43.1,0.00,SSE,154,10.5,12.8,76,0.00,,,0.71,VWS V13.01,2013-10-15 13:30:00,
2013-10-15 08:35:00,50.2,43.3,0.00,SSE,164,12.3,14.5,77,0.00,,,0.71,VWS V13.01,2013-10-15 13:35:00,
2013-10-15 08:40:00,50.2,43.3,0.00,SSE,154,11.0,12.8,77,0.00,,,0.71,VWS V13.01,2013-10-15 13:40:00,
2013-10-15 08:45:00,50.4,44.1,0.00,SSE,157,8.3,10.5,79,0.00,,,0.71,VWS V13.01,2013-10-15 13:45:00,
2013-10-15 08:50:00,50.4,44.1,0.00,SE,125,8.3,10.5,79,0.00,,,0.71,VWS V13.01,2013-10-15 13:50:00,
2013-10-15 08:55:00,50.4,44.4,0.00,SSW,195,8.1,8.1,80,0.00,,,0.71,VWS V13.01,2013-10-15 13:55:00,
2013-10-15 09:00:00,50.4,44.4,0.00,SE,144,8.3,11.0,80,0.00,,,0.71,VWS V13.01,2013-10-15 14:00:00,
2013-10-15 09:05:00,50.5,44.6,0.00,SSE,156,10.1,10.1,80,0.00,,,0.71,VWS V13.01,2013-10-15 14:05:00,
2013-10-15 09:10:00,50.5,44.6,0.00,South,179,6.3,7.6,80,0.00,,,0.71,VWS V13.01,2013-10-15 14:10:00,
2013-10-15 09:15:00,50.7,45.1,0.00,SE,128,11.9,11.9,81,0.00,,,0.71,VWS V13.01,2013-10-15 14:15:00,
2013-10-15 09:20:00,50.7,44.8,0.00,SSE,154,10.5,10.5,80,0.00,,,0.71,VWS V13.01,2013-10-15 14:20:00,
2013-10-15 09:25:00,50.9,45.0,0.00,SE,143,8.7,11.0,80,0.00,,,0.71,VWS V13.01,2013-10-15 14:25:00,
2013-10-15 09:30:00,50.9,45.3,0.00,ESE,110,8.1,8.1,81,0.00,,,0.71,VWS V13.01,2013-10-15 14:30:00,
2013-10-15 09:35:00,51.1,45.1,0.00,South,185,7.6,8.3,80,0.00,,,0.71,VWS V13.01,2013-10-15 14:35:00,
2013-10-15 09:40:00,51.1,45.5,0.00,SE,138,8.7,8.7,81,0.00,,,0.71,VWS V13.01,2013-10-15 14:40:00,
2013-10-15 09:45:00,51.1,45.5,0.00,SSE,162,6.3,6.3,81,0.00,,,0.71,VWS V13.01,2013-10-15 14:45:00,
2013-10-15 09:50:00,51.1,45.5,0.00,SE,145,8.1,9.6,81,0.00,,,0.71,VWS V13.01,2013-10-15 14:50:00,
2013-10-15 09:55:00,51.3,46.0,0.00,SSE,160,5.4,8.7,82,0.00,,,0.71,VWS V13.01,2013-10-15 14:55:00,
2013-10-15 10:00:00,51.3,45.6,0.00,South,173,6.3,6.3,81,0.00,,,0.71,VWS V13.01,2013-10-15 15:00:00,
2013-10-15 10:05:00,51.3,45.6,0.00,SSE,165,4.0,4.9,81,0.00,,,0.71,VWS V13.01,2013-10-15 15:05:00,
2013-10-15 10:10:00,51.3,46.0,0.00,South,175,6.3,7.6,82,0.00,,,0.71,VWS V13.01,2013-10-15 15:10:00,
2013-10-15 10:15:00,51.6,46.3,0.00,SSE,165,8.1,9.6,82,0.00,,,0.71,VWS V13.01,2013-10-15 15:15:00,
2013-10-15 10:20:00,51.6,46.6,0.00,South,171,8.7,8.7,83,0.00,,,0.71,VWS V13.01,2013-10-15 15:20:00,
2013-10-15 10:25:00,51.8,46.5,0.00,South,182,8.1,8.1,82,0.00,,,0.71,VWS V13.01,2013-10-15 15:25:00,
2013-10-15 10:30:00,51.8,46.5,0.00,SSE,159,5.4,5.8,82,0.00,,,0.71,VWS V13.01,2013-10-15 15:30:00,
2013-10-15 10:35:00,52.0,47.0,0.00,SSE,151,8.1,8.1,83,0.00,,,0.71,VWS V13.01,2013-10-15 15:35:00,
2013-10-15 10:40:00,51.8,46.5,0.00,SSE,160,8.3,8.3,82,0.00,,,0.71,VWS V13.01,2013-10-15 15:40:00,
2013-10-15 10:45:00,52.0,46.7,0.00,South,170,5.4,7.6,82,0.00,,,0.71,VWS V13.01,2013-10-15 15:45:00,
2013-10-15 10:50:00,52.0,46.7,0.00,SSE,155,8.3,8.3,82,0.00,,,0.71,VWS V13.01,2013-10-15 15:50:00,
2013-10-15 10:55:00,52.2,47.2,0.00,SE,130,8.7,8.7,83,0.00,,,0.71,VWS V13.01,2013-10-15 15:55:00,
2013-10-15 11:00:00,52.0,46.7,0.00,SSE,159,9.6,9.6,82,0.00,,,0.71,VWS V13.01,2013-10-15 16:00:00,
2013-10-15 11:05:00,52.2,46.8,0.00,SE,144,5.4,5.4,82,0.00,,,0.71,VWS V13.01,2013-10-15 16:05:00,
2013-10-15 11:10:00,52.2,46.8,0.00,SSE,153,5.4,6.3,82,0.00,,,0.71,VWS V13.01,2013-10-15 16:10:00,
2013-10-15 11:15:00,52.3,47.0,0.00,SSE,147,6.7,10.1,82,0.00,,,0.71,VWS V13.01,2013-10-15 16:15:00,
2013-10-15 11:20:00,52.3,47.0,0.00,SSE,165,8.3,8.7,82,0.00,,,0.71,VWS V13.01,2013-10-15 16:20:00,
2013-10-15 11:25:00,52.3,47.0,0.00,SSE,161,7.6,8.1,82,0.00,,,0.71,VWS V13.01,2013-10-15 16:25:00,
2013-10-15 11:30:00,52.3,47.0,0.00,SSE,157,8.7,8.7,82,0.00,,,0.71,VWS V13.01,2013-10-15 16:30:00,
2013-10-15 11:35:00,52.3,47.0,0.00,SE,141,8.3,8.3,82,0.00,,,0.71,VWS V13.01,2013-10-15 16:35:00,
2013-10-15 11:40:00,52.3,47.3,0.00,SSE,147,8.1,8.7,83,0.00,,,0.71,VWS V13.01,2013-10-15 16:40:00,
2013-10-15 11:45:00,52.5,47.5,0.00,SSE,159,8.1,8.3,83,0.00,,,0.71,VWS V13.01,2013-10-15 16:45:00,
2013-10-15 11:50:00,52.5,47.5,0.00,SE,131,7.6,7.6,83,0.00,,,0.71,VWS V13.01,2013-10-15 16:50:00,
2013-10-15 11:55:00,52.7,47.7,0.00,SE,146,8.3,8.7,83,0.00,,,0.71,VWS V13.01,2013-10-15 16:55:00,
2013-10-15 12:00:00,52.7,47.7,0.00,SSE,153,10.5,10.5,83,0.00,,,0.71,VWS V13.01,2013-10-15 17:00:00,
2013-10-15 12:05:00,52.7,47.7,0.00,ESE,117,5.8,8.3,83,0.00,,,0.71,VWS V13.01,2013-10-15 17:05:00,
2013-10-15 12:10:00,52.7,47.7,0.00,SSE,150,8.1,11.0,83,0.00,,,0.71,VWS V13.01,2013-10-15 17:10:00,
2013-10-15 12:15:00,52.7,47.7,0.00,SSE,167,8.7,10.1,83,0.00,,,0.71,VWS V13.01,2013-10-15 17:15:00,
2013-10-15 12:20:00,52.9,47.9,0.00,SE,145,11.0,11.0,83,0.00,,,0.71,VWS V13.01,2013-10-15 17:20:00,
2013-10-15 12:25:00,52.9,47.9,0.00,SE,143,8.7,9.2,83,0.00,,,0.71,VWS V13.01,2013-10-15 17:25:00,
2013-10-15 12:30:00,52.9,47.9,0.00,SSE,162,9.6,9.6,83,0.00,,,0.71,VWS V13.01,2013-10-15 17:30:00,
2013-10-15 12:35:00,52.9,47.9,0.00,SE,136,7.6,8.1,83,0.00,,,0.71,VWS V13.01,2013-10-15 17:35:00,
2013-10-15 12:40:00,53.1,48.0,0.00,SSE,153,8.7,8.7,83,0.00,,,0.71,VWS V13.01,2013-10-15 17:40:00,
2013-10-15 12:45:00,53.1,48.0,0.00,SE,128,8.3,8.7,83,0.00,,,0.71,VWS V13.01,2013-10-15 17:45:00,
2013-10-15 12:50:00,53.1,48.0,0.00,SSE,158,7.2,11.0,83,0.00,,,0.71,VWS V13.01,2013-10-15 17:50:00,
2013-10-15 12:55:00,53.2,48.2,0.00,South,173,7.6,7.6,83,0.00,,,0.71,VWS V13.01,2013-10-15 17:55:00,
2013-10-15 13:00:00,53.2,48.2,0.00,ESE,111,9.6,10.1,83,0.00,,,0.71,VWS V13.01,2013-10-15 18:00:00,
2013-10-15 13:05:00,53.2,48.2,0.00,SSE,159,8.1,8.1,83,0.00,,,0.71,VWS V13.01,2013-10-15 18:05:00,
2013-10-15 13:10:00,53.2,48.2,0.00,ESE,123,7.6,7.6,83,0.00,,,0.71,VWS V13.01,2013-10-15 18:10:00,
2013-10-15 13:15:00,53.2,48.2,0.00,SSE,158,8.7,8.7,83,0.00,,,0.71,VWS V13.01,2013-10-15 18:15:00,
2013-10-15 13:20:00,53.4,48.4,0.00,SSE,158,7.6,8.7,83,0.00,,,0.71,VWS V13.01,2013-10-15 18:20:00,
2013-10-15 13:25:00,53.4,48.4,0.00,SSE,156,7.2,8.3,83,0.00,,,0.71,VWS V13.01,2013-10-15 18:25:00,
2013-10-15 13:30:00,53.6,48.6,0.00,SE,141,7.6,7.6,83,0.00,,,0.71,VWS V13.01,2013-10-15 18:30:00,
2013-10-15 13:35:00,53.6,48.6,0.00,SE,124,6.3,8.3,83,0.00,,,0.71,VWS V13.01,2013-10-15 18:35:00,
2013-10-15 13:40:00,53.6,48.6,0.00,SSE,160,8.1,8.1,83,0.00,,,0.71,VWS V13.01,2013-10-15 18:40:00,
2013-10-15 13:45:00,53.6,48.6,0.00,SSE,155,5.8,8.1,83,0.00,,,0.71,VWS V13.01,2013-10-15 18:45:00,
2013-10-15 13:50:00,53.6,48.6,0.00,SE,126,7.2,8.1,83,0.00,,,0.71,VWS V13.01,2013-10-15 18:50:00,
2013-10-15 13:55:00,53.6,48.6,0.00,SE,144,8.3,8.3,83,0.00,,,0.71,VWS V13.01,2013-10-15 18:55:00,
2013-10-15 14:00:00,53.8,48.8,0.00,SSE,153,8.1,8.1,83,0.00,,,0.71,VWS V13.01,2013-10-15 19:00:00,
2013-10-15 14:05:00,53.8,48.8,0.00,SE,145,4.0,4.5,83,0.00,,,0.71,VWS V13.01,2013-10-15 19:05:00,
2013-10-15 14:10:00,53.8,48.4,0.00,SE,142,5.8,6.3,82,0.00,,,0.71,VWS V13.01,2013-10-15 19:10:00,
2013-10-15 14:15:00,54.0,48.6,0.00,SE,138,6.3,7.6,82,0.00,,,0.71,VWS V13.01,2013-10-15 19:15:00,
2013-10-15 14:20:00,54.0,48.6,0.00,ESE,119,6.3,6.3,82,0.00,,,0.71,VWS V13.01,2013-10-15 19:20:00,
2013-10-15 14:25:00,54.0,48.6,0.00,SE,127,6.3,7.6,82,0.00,,,0.71,VWS V13.01,2013-10-15 19:25:00,
2013-10-15 14:30:00,54.0,48.6,0.00,SSW,204,0.0,0.0,82,0.00,,,0.71,VWS V13.01,2013-10-15 19:30:00,
2013-10-15 14:35:00,54.0,48.6,0.00,South,189,3.1,5.4,82,0.00,,,0.71,VWS V13.01,2013-10-15 19:35:00,
2013-10-15 14:40:00,54.0,48.6,0.00,SSW,196,4.9,5.4,82,0.00,,,0.71,VWS V13.01,2013-10-15 19:40:00,
2013-10-15 14:45:00,53.8,47.8,0.00,SSW,198,8.1,8.1,80,0.00,,,0.71,VWS V13.01,2013-10-15 19:45:00,
2013-10-15 14:50:00,53.8,45.3,0.00,South,174,8.7,8.7,73,0.00,,,0.71,VWS V13.01,2013-10-15 19:50:00,
2013-10-15 14:55:00,54.3,44.4,0.00,South,184,4.0,4.0,69,0.00,,,0.71,VWS V13.01,2013-10-15 19:55:00,
2013-10-15 15:00:00,54.3,44.8,0.00,South,191,2.7,3.6,70,0.00,,,0.71,VWS V13.01,2013-10-15 20:00:00,
2013-10-15 15:05:00,54.3,44.4,0.00,South,188,2.2,4.0,69,0.00,,,0.71,VWS V13.01,2013-10-15 20:05:00,
2013-10-15 15:10:00,54.1,43.4,0.00,South,188,4.9,6.3,67,0.00,,,0.71,VWS V13.01,2013-10-15 20:10:00,
2013-10-15 15:15:00,54.1,42.2,0.00,South,189,3.6,3.6,64,0.00,,,0.71,VWS V13.01,2013-10-15 20:15:00,
2013-10-15 15:20:00,54.0,41.2,0.00,South,182,3.6,3.6,62,0.00,,,0.71,VWS V13.01,2013-10-15 20:20:00,
2013-10-15 15:25:00,54.0,40.8,0.00,South,184,0.0,2.7,61,0.00,,,0.71,VWS V13.01,2013-10-15 20:25:00,
2013-10-15 15:30:00,54.0,40.0,0.00,South,189,4.0,6.3,59,0.00,,,0.71,VWS V13.01,2013-10-15 20:30:00,
2013-10-15 15:35:00,54.0,40.4,0.00,South,185,0.0,0.0,60,0.00,,,0.71,VWS V13.01,2013-10-15 20:35:00,
2013-10-15 15:40:00,54.0,40.8,0.00,SSW,194,2.2,3.6,61,0.00,,,0.71,VWS V13.01,2013-10-15 20:40:00,
2013-10-15 15:45:00,53.6,40.5,0.00,SW,224,0.0,5.8,61,0.00,,,0.71,VWS V13.01,2013-10-15 20:45:00,
2013-10-15 15:50:00,53.2,40.2,0.00,WSW,237,0.0,0.0,61,0.00,,,0.71,VWS V13.01,2013-10-15 20:50:00,
2013-10-15 15:55:00,52.9,40.2,0.00,SW,225,2.2,2.2,62,0.00,,,0.71,VWS V13.01,2013-10-15 20:55:00,
2013-10-15 16:01:00,52.5,39.9,0.00,South,185,3.1,3.6,62,0.00,,,0.71,VWS V13.01,2013-10-15 21:01:00,
2013-10-15 16:06:00,52.2,40.0,0.00,SSW,199,0.0,0.0,63,0.00,,,0.71,VWS V13.01,2013-10-15 21:06:00,
2013-10-15 16:11:00,51.8,40.0,0.00,SSW,194,3.6,4.9,64,0.00,,,0.71,VWS V13.01,2013-10-15 21:11:00,
2013-10-15 16:16:00,51.6,40.2,0.00,SW,222,5.4,5.4,65,0.00,,,0.71,VWS V13.01,2013-10-15 21:16:00,
2013-10-15 16:21:00,51.4,40.5,0.00,South,190,0.0,0.0,66,0.00,,,0.71,VWS V13.01,2013-10-15 21:21:00,
2013-10-15 16:26:00,51.3,40.3,0.00,South,190,0.0,0.0,66,0.00,,,0.71,VWS V13.01,2013-10-15 21:26:00,
2013-10-15 16:31:00,51.1,40.1,0.00,South,190,0.0,0.0,66,0.00,,,0.71,VWS V13.01,2013-10-15 21:31:00,
2013-10-15 16:36:00,50.9,40.3,0.00,South,190,0.0,2.2,67,0.00,,,0.71,VWS V13.01,2013-10-15 21:36:00,
2013-10-15 16:41:00,50.7,40.2,0.00,South,190,0.0,0.0,67,0.00,,,0.71,VWS V13.01,2013-10-15 21:41:00,
2013-10-15 16:46:00,50.5,40.0,0.00,South,190,0.0,0.0,67,0.00,,,0.71,VWS V13.01,2013-10-15 21:46:00,
2013-10-15 16:51:00,50.4,40.2,0.00,South,190,0.0,0.0,68,0.00,,,0.71,VWS V13.01,2013-10-15 21:51:00,
2013-10-15 16:56:00,50.4,40.2,0.00,South,190,0.0,0.0,68,0.00,,,0.71,VWS V13.01,2013-10-15 21:56:00,
2013-10-15 17:01:00,50.4,40.6,0.00,SSW,193,0.0,2.7,69,0.00,,,0.71,VWS V13.01,2013-10-15 22:01:00,
2013-10-15 17:06:00,50.4,40.6,0.00,SSW,192,0.0,0.0,69,0.00,,,0.71,VWS V13.01,2013-10-15 22:06:00,
2013-10-15 17:11:00,50.2,40.4,0.00,SSW,203,0.0,0.0,69,0.00,,,0.71,VWS V13.01,2013-10-15 22:11:00,
2013-10-15 17:16:00,50.2,40.8,0.00,South,186,0.0,0.0,70,0.00,,,0.71,VWS V13.01,2013-10-15 22:16:00,
2013-10-15 17:21:00,50.0,40.6,0.00,South,186,0.0,0.0,70,0.00,,,0.71,VWS V13.01,2013-10-15 22:21:00,
2013-10-15 17:26:00,50.0,40.6,0.00,South,186,0.0,0.0,70,0.00,,,0.71,VWS V13.01,2013-10-15 22:26:00,
2013-10-15 17:31:00,49.8,40.8,0.00,South,186,0.0,0.0,71,0.00,,,0.71,VWS V13.01,2013-10-15 22:31:00,
2013-10-15 17:36:00,50.0,41.0,0.00,South,186,0.0,0.0,71,0.00,,,0.71,VWS V13.01,2013-10-15 22:36:00,
2013-10-15 17:41:00,49.8,40.8,0.00,South,186,0.0,0.0,71,0.00,,,0.71,VWS V13.01,2013-10-15 22:41:00,
2013-10-15 17:46:00,49.8,40.8,0.00,South,185,2.7,5.4,71,0.00,,,0.71,VWS V13.01,2013-10-15 22:46:00,
2013-10-15 17:51:00,49.8,41.2,0.00,South,185,0.0,0.0,72,0.00,,,0.71,VWS V13.01,2013-10-15 22:51:00,
2013-10-15 17:56:00,49.8,41.2,0.00,South,170,0.0,0.0,72,0.00,,,0.71,VWS V13.01,2013-10-15 22:56:00,
2013-10-15 18:01:00,49.8,41.2,0.00,SSW,197,6.3,6.3,72,0.00,,,0.71,VWS V13.01,2013-10-15 23:01:00,
2013-10-15 18:06:00,49.8,41.5,0.00,SSW,193,0.0,0.0,73,0.00,,,0.71,VWS V13.01,2013-10-15 23:06:00,
2013-10-15 18:11:00,49.8,41.5,0.00,South,179,0.0,0.0,73,0.00,,,0.71,VWS V13.01,2013-10-15 23:11:00,
2013-10-15 18:16:00,49.6,41.3,0.00,South,172,2.7,2.7,73,0.00,,,0.71,VWS V13.01,2013-10-15 23:16:00,
2013-10-15 18:21:00,49.6,41.3,0.00,SSW,193,2.2,3.1,73,0.00,,,0.71,VWS V13.01,2013-10-15 23:21:00,
2013-10-15 18:26:00,49.6,41.3,0.00,SSW,192,0.0,0.0,73,0.00,,,0.71,VWS V13.01,2013-10-15 23:26:00,
2013-10-15 18:31:00,49.5,41.2,0.00,South,191,3.6,3.6,73,0.00,,,0.71,VWS V13.01,2013-10-15 23:31:00,
2013-10-15 18:36:00,49.5,41.2,0.00,South,184,0.0,0.0,73,0.00,,,0.71,VWS V13.01,2013-10-15 23:36:00,
2013-10-15 18:41:00,49.5,41.5,0.00,South,184,0.0,0.0,74,0.00,,,0.71,VWS V13.01,2013-10-15 23:41:00,
2013-10-15 18:46:00,49.5,41.5,0.00,South,184,0.0,0.0,74,0.00,,,0.71,VWS V13.01,2013-10-15 23:46:00,
2013-10-15 18:51:00,49.3,41.4,0.00,South,184,0.0,0.0,74,0.00,,,0.71,VWS V13.01,2013-10-15 23:51:00,
2013-10-15 18:56:00,49.3,41.4,0.00,South,184,0.0,0.0,74,0.00,,,0.71,VWS V13.01,2013-10-15 23:56:00,
2013-10-15 19:01:00,49.3,41.4,0.00,South,184,0.0,0.0,74,0.00,,,0.71,VWS V13.01,2013-10-16 00:01:00,
2013-10-15 19:06:00,49.3,41.4,0.00,South,184,0.0,0.0,74,0.04,,,0.75,VWS V13.01,2013-10-16 00:06:00,
2013-10-15 19:11:00,49.3,41.4,0.00,South,184,0.0,0.0,74,0.04,,,0.75,VWS V13.01,2013-10-16 00:11:00,
2013-10-15 19:16:00,49.3,41.4,0.00,South,184,0.0,0.0,74,0.04,,,0.75,VWS V13.01,2013-10-16 00:16:00,
2013-10-15 19:21:00,49.1,41.2,0.00,South,184,0.0,0.0,74,0.04,,,0.75,VWS V13.01,2013-10-16 00:21:00,
2013-10-15 19:26:00,48.9,41.0,0.00,South,184,0.0,0.0,74,0.04,,,0.75,VWS V13.01,2013-10-16 00:26:00,
2013-10-15 19:31:00,48.9,41.0,0.00,South,184,0.0,0.0,74,0.04,,,0.75,VWS V13.01,2013-10-16 00:31:00,
2013-10-15 19:36:00,48.7,40.8,0.00,South,184,0.0,0.0,74,0.04,,,0.75,VWS V13.01,2013-10-16 00:36:00,
2013-10-15 19:41:00,48.6,40.7,0.00,South,184,0.0,0.0,74,0.04,,,0.75,VWS V13.01,2013-10-16 00:41:00,
2013-10-15 19:46:00,48.6,40.7,0.00,SSW,195,0.0,0.0,74,0.04,,,0.75,VWS V13.01,2013-10-16 00:46:00,
2013-10-15 19:51:00,48.6,40.7,0.00,SSW,195,0.0,0.0,74,0.04,,,0.75,VWS V13.01,2013-10-16 00:51:00,
2013-10-15 19:56:00,48.4,40.5,0.00,SSW,195,0.0,0.0,74,0.04,,,0.75,VWS V13.01,2013-10-16 00:56:00,
2013-10-15 20:01:00,48.2,40.3,0.00,SSW,195,0.0,0.0,74,0.04,,,0.75,VWS V13.01,2013-10-16 01:01:00,
2013-10-15 20:06:00,48.2,40.3,0.00,SSW,195,0.0,0.0,74,0.00,,,0.75,VWS V13.01,2013-10-16 01:06:00,
2013-10-15 20:11:00,48.0,40.5,0.00,SSW,195,0.0,0.0,75,0.00,,,0.75,VWS V13.01,2013-10-16 01:11:00,
2013-10-15 20:16:00,47.8,40.3,0.00,SSW,195,0.0,0.0,75,0.00,,,0.75,VWS V13.01,2013-10-16 01:16:00,
2013-10-15 20:21:00,47.7,40.1,0.00,SSW,195,0.0,0.0,75,0.00,,,0.75,VWS V13.01,2013-10-16 01:21:00,
2013-10-15 20:26:00,47.7,40.1,0.00,SSW,195,0.0,0.0,75,0.00,,,0.75,VWS V13.01,2013-10-16 01:26:00,
2013-10-15 20:31:00,47.7,40.1,0.00,SSW,195,0.0,0.0,75,0.00,,,0.75,VWS V13.01,2013-10-16 01:31:00,
2013-10-15 20:36:00,47.5,40.0,0.00,SSW,195,0.0,0.0,75,0.00,,,0.75,VWS V13.01,2013-10-16 01:36:00,
2013-10-15 20:41:00,47.5,40.0,0.00,SSW,195,0.0,0.0,75,0.00,,,0.75,VWS V13.01,2013-10-16 01:41:00,
2013-10-15 20:46:00,47.5,40.0,0.00,SSW,195,0.0,0.0,75,0.00,,,0.75,VWS V13.01,2013-10-16 01:46:00,
2013-10-15 20:51:00,47.3,39.8,0.00,SSW,195,0.0,0.0,75,0.00,,,0.75,VWS V13.01,2013-10-16 01:51:00,
2013-10-15 20:56:00,47.3,39.8,0.00,SSW,195,0.0,0.0,75,0.00,,,0.75,VWS V13.01,2013-10-16 01:56:00,
2013-10-15 21:01:00,47.3,39.8,0.00,SSW,195,0.0,0.0,75,0.00,,,0.75,VWS V13.01,2013-10-16 02:01:00,
2013-10-15 21:06:00,47.3,40.1,0.00,SSW,195,0.0,0.0,76,0.00,,,0.75,VWS V13.01,2013-10-16 02:06:00,
2013-10-15 21:11:00,47.3,40.1,0.00,SSW,195,0.0,0.0,76,0.00,,,0.75,VWS V13.01,2013-10-16 02:11:00,
2013-10-15 21:16:00,47.3,40.1,0.00,SSW,195,0.0,0.0,76,0.00,,,0.75,VWS V13.01,2013-10-16 02:16:00,
2013-10-15 21:21:00,47.3,40.1,0.00,SSW,195,0.0,0.0,76,0.00,,,0.75,VWS V13.01,2013-10-16 02:21:00,
2013-10-15 21:26:00,47.3,40.1,0.00,SSW,195,0.0,0.0,76,0.00,,,0.75,VWS V13.01,2013-10-16 02:26:00,
2013-10-15 21:31:00,47.1,40.0,0.00,SSW,195,0.0,0.0,76,0.00,,,0.75,VWS V13.01,2013-10-16 02:31:00,
2013-10-15 21:36:00,47.1,40.0,0.00,SSW,195,0.0,0.0,76,0.00,,,0.75,VWS V13.01,2013-10-16 02:36:00,
2013-10-15 21:41:00,47.1,40.0,0.00,SSW,195,0.0,0.0,76,0.00,,,0.75,VWS V13.01,2013-10-16 02:41:00,
2013-10-15 21:46:00,47.1,40.0,0.00,SSW,195,0.0,0.0,76,0.00,,,0.75,VWS V13.01,2013-10-16 02:46:00,
2013-10-15 21:51:00,47.1,40.0,0.00,SSW,195,0.0,0.0,76,0.00,,,0.75,VWS V13.01,2013-10-16 02:51:00,
2013-10-15 21:56:00,46.9,39.8,0.00,SSW,195,0.0,0.0,76,0.00,,,0.75,VWS V13.01,2013-10-16 02:56:00,
2013-10-15 22:01:00,46.9,39.8,0.00,South,186,0.0,0.0,76,0.00,,,0.75,VWS V13.01,2013-10-16 03:01:00,
2013-10-15 22:06:00,46.9,39.8,0.00,South,186,0.0,0.0,76,0.00,,,0.75,VWS V13.01,2013-10-16 03:06:00,
2013-10-15 22:11:00,46.9,39.8,0.00,South,186,2.2,2.2,76,0.04,,,0.79,VWS V13.01,2013-10-16 03:11:00,
2013-10-15 22:16:00,46.9,39.8,0.00,South,186,0.0,0.0,76,0.04,,,0.79,VWS V13.01,2013-10-16 03:16:00,
2013-10-15 22:21:00,46.9,39.8,0.00,South,186,0.0,0.0,76,0.04,,,0.79,VWS V13.01,2013-10-16 03:21:00,
2013-10-15 22:26:00,46.9,39.8,0.00,South,186,0.0,0.0,76,0.04,,,0.79,VWS V13.01,2013-10-16 03:26:00,
2013-10-15 22:31:00,46.9,39.8,0.00,South,186,0.0,0.0,76,0.04,,,0.79,VWS V13.01,2013-10-16 03:31:00,
2013-10-15 22:36:00,46.8,39.6,0.00,South,186,0.0,0.0,76,0.04,,,0.79,VWS V13.01,2013-10-16 03:36:00,
2013-10-15 22:41:00,46.8,39.6,0.00,South,186,0.0,0.0,76,0.04,,,0.79,VWS V13.01,2013-10-16 03:41:00,
2013-10-15 22:46:00,46.8,39.6,0.00,South,186,0.0,0.0,76,0.04,,,0.79,VWS V13.01,2013-10-16 03:46:00,
2013-10-15 22:51:00,46.8,39.6,0.00,South,186,0.0,0.0,76,0.04,,,0.79,VWS V13.01,2013-10-16 03:51:00,
2013-10-15 22:56:00,46.8,39.6,0.00,South,186,0.0,0.0,76,0.04,,,0.79,VWS V13.01,2013-10-16 03:56:00,
2013-10-15 23:01:00,46.8,39.6,0.00,South,186,0.0,0.0,76,0.04,,,0.79,VWS V13.01,2013-10-16 04:01:00,
2013-10-15 23:02:00,46.8,39.6,0.00,South,186,0.0,0.0,76,0.04,,,0.79,VWS V13.01,2013-10-16 04:02:00,
2013-10-15 23:07:00,46.8,39.6,0.00,South,186,0.0,0.0,76,0.04,,,0.79,VWS V13.01,2013-10-16 04:07:00,
2013-10-15 23:12:00,46.8,39.6,0.00,South,186,0.0,0.0,76,0.00,,,0.79,VWS V13.01,2013-10-16 04:12:00,
2013-10-15 23:17:00,46.8,39.6,0.00,South,186,0.0,0.0,76,0.00,,,0.79,VWS V13.01,2013-10-16 04:17:00,
2013-10-15 23:22:00,46.8,39.6,0.00,South,186,0.0,0.0,76,0.00,,,0.79,VWS V13.01,2013-10-16 04:22:00,
2013-10-15 23:27:00,46.8,39.6,0.00,South,186,0.0,0.0,76,0.00,,,0.79,VWS V13.01,2013-10-16 04:27:00,
2013-10-15 23:32:00,46.8,39.6,0.00,South,186,0.0,0.0,76,0.00,,,0.79,VWS V13.01,2013-10-16 04:32:00,
2013-10-15 23:37:00,46.8,39.9,0.00,South,186,0.0,0.0,77,0.00,,,0.79,VWS V13.01,2013-10-16 04:37:00,
2013-10-15 23:42:00,46.8,39.9,0.00,South,186,0.0,0.0,77,0.00,,,0.79,VWS V13.01,2013-10-16 04:42:00,
2013-10-15 23:47:00,46.8,39.9,0.00,South,186,0.0,0.0,77,0.00,,,0.79,VWS V13.01,2013-10-16 04:47:00,
2013-10-15 23:52:00,46.8,39.9,0.00,South,186,0.0,0.0,77,0.00,,,0.79,VWS V13.01,2013-10-16 04:52:00,
2013-10-15 23:57:00,46.8,39.9,0.00,South,186,0.0,0.0,77,0.00,,,0.79,VWS V13.01,2013-10-16 04:57:00,